createdAt,value
2024-05-09T00:00:04.887Z,100186.09
2024-05-09T00:01:30.591Z,100096.66
2024-05-09T00:02:55.263Z,100187.50
2024-05-09T00:04:19.674Z,100187.37
2024-05-09T00:05:44.078Z,100188.92
2024-05-09T00:07:08.417Z,100202.52
2024-05-09T00:08:32.415Z,100192.95
2024-05-09T00:09:56.793Z,100109.20
2024-05-09T00:11:22.275Z,100188.82
2024-05-09T00:12:46.428Z,100192.73
2024-05-09T00:14:10.051Z,100194.61
2024-05-09T00:15:35.338Z,100197.36
2024-05-09T00:16:59.764Z,100196.05
2024-05-09T00:18:24.322Z,100190.78
2024-05-09T00:19:48.654Z,100200.41
2024-05-09T00:21:13.763Z,100195.55
2024-05-09T00:22:37.900Z,100194.24
2024-05-09T00:24:02.849Z,100197.60
2024-05-09T00:25:29.118Z,100197.41
2024-05-09T00:26:53.556Z,100202.98
2024-05-09T00:28:17.810Z,100196.10
2024-05-09T00:29:41.765Z,100200.98
2024-05-09T00:31:05.861Z,100202.48
2024-05-09T00:32:30.627Z,100203.03
2024-05-09T00:33:55.356Z,100202.00
2024-05-09T00:35:19.824Z,100206.50
2024-05-09T00:36:44.525Z,100201.28
2024-05-09T00:38:09.988Z,100199.98
2024-05-09T00:39:33.994Z,100203.50
2024-05-09T00:40:58.607Z,100210.39
2024-05-09T00:42:23.055Z,100212.05
2024-05-09T00:43:48.071Z,100203.81
2024-05-09T00:45:12.618Z,100210.19
2024-05-09T00:46:37.449Z,100205.84
2024-05-09T00:48:05.343Z,100206.19
2024-05-09T00:49:32.504Z,100212.24
2024-05-09T00:50:58.151Z,100215.88
2024-05-09T00:52:26.392Z,100210.17
2024-05-09T00:53:50.510Z,100214.53
2024-05-09T00:55:16.914Z,100213.70
2024-05-09T00:56:41.801Z,100219.08
2024-05-09T00:58:09.267Z,100211.48
2024-05-09T00:59:34.365Z,100214.53
2024-05-09T01:01:01.294Z,100217.58
2024-05-09T01:02:27.668Z,100217.58
2024-05-09T01:03:54.223Z,100215.05
2024-05-09T01:05:18.657Z,100184.05
2024-05-09T01:06:43.134Z,100217.43
2024-05-09T01:08:08.767Z,100221.50
2024-05-09T01:09:33.268Z,100218.98
2024-05-09T01:10:57.415Z,100229.06
2024-05-09T01:12:21.657Z,100223.69
2024-05-09T01:13:47.253Z,100221.35
2024-05-09T01:15:11.648Z,100216.33
2024-05-09T01:16:36.580Z,100213.32
2024-05-09T01:18:10.733Z,100217.87
2024-05-09T01:19:36.472Z,100219.05
2024-05-09T01:21:00.952Z,100122.50
2024-05-09T01:22:26.864Z,100219.09
2024-05-09T01:23:50.674Z,100214.22
2024-05-09T01:25:15.304Z,100212.05
2024-05-09T01:26:39.695Z,100223.50
2024-05-09T01:28:04.803Z,100220.49
2024-05-09T01:29:28.972Z,100219.18
2024-05-09T01:30:53.532Z,100229.77
2024-05-09T01:32:17.957Z,100227.23
2024-05-09T01:33:44.632Z,100232.31
2024-05-09T01:35:09.119Z,100226.42
2024-05-09T01:36:33.771Z,100230.64
2024-05-09T01:37:58.298Z,100231.66
2024-05-09T01:39:23.239Z,100241.24
2024-05-09T01:40:48.397Z,100239.73
2024-05-09T01:42:13.274Z,100242.73
2024-05-09T01:43:37.881Z,100238.38
2024-05-09T01:45:02.523Z,100234.67
2024-05-09T01:46:27.196Z,100239.55
2024-05-09T01:47:51.538Z,100238.39
2024-05-09T01:49:16.600Z,100241.75
2024-05-09T01:50:43.064Z,100235.86
2024-05-09T01:52:07.249Z,100243.42
2024-05-09T01:53:31.796Z,100232.69
2024-05-09T01:54:55.777Z,100242.59
2024-05-09T01:56:20.551Z,100234.70
2024-05-09T01:57:44.767Z,100248.47
2024-05-09T01:59:10.044Z,100240.07
2024-05-09T02:00:39.854Z,100243.25
2024-05-09T02:02:01.901Z,100245.44
2024-05-09T02:03:26.380Z,100253.98
2024-05-09T02:04:51.011Z,100246.42
2024-05-09T02:06:17.090Z,100246.94
2024-05-09T02:07:42.052Z,100253.14
2024-05-09T02:09:05.888Z,100251.97
2024-05-09T02:10:32.853Z,100252.46
2024-05-09T02:11:56.308Z,100252.80
2024-05-09T02:13:20.697Z,100256.50
2024-05-09T02:14:44.663Z,100253.13
2024-05-09T02:16:14.973Z,100260.35
2024-05-09T02:17:39.268Z,100260.35
2024-05-09T02:19:04.043Z,100266.89
2024-05-09T02:20:35.552Z,100259.82
2024-05-09T02:21:56.015Z,100273.24
2024-05-09T02:23:20.518Z,100273.92
2024-05-09T02:24:45.181Z,100272.41
2024-05-09T02:26:10.780Z,100268.70
2024-05-09T02:27:35.996Z,100268.07
2024-05-09T02:29:00.035Z,100275.11
2024-05-09T02:30:35.029Z,100272.42
2024-05-09T02:31:51.074Z,100269.72
2024-05-09T02:33:15.517Z,100270.75
2024-05-09T02:34:39.888Z,100275.44
2024-05-09T02:36:04.271Z,100278.63
2024-05-09T02:37:28.363Z,100276.47
2024-05-09T02:38:52.223Z,100277.45
2024-05-09T02:40:25.173Z,100278.13
2024-05-09T02:41:42.761Z,100286.86
2024-05-09T02:43:08.556Z,100287.01
2024-05-09T02:44:34.474Z,100277.44
2024-05-09T02:45:58.776Z,100280.32
2024-05-09T02:47:23.710Z,100292.39
2024-05-09T02:48:48.066Z,100295.26
2024-05-09T02:51:38.237Z,100286.69
2024-05-09T02:53:03.072Z,100316.40
2024-05-09T02:54:27.270Z,100292.73
2024-05-09T02:55:52.194Z,100302.63
2024-05-09T02:57:16.718Z,100300.16
2024-05-09T02:58:41.434Z,100304.66
2024-05-09T03:00:12.109Z,100303.48
2024-05-09T03:01:34.303Z,100301.00
2024-05-09T03:02:59.275Z,100303.68
2024-05-09T03:04:24.714Z,100303.68
2024-05-09T03:05:49.266Z,100309.39
2024-05-09T03:07:13.774Z,100310.38
2024-05-09T03:08:38.520Z,100312.41
2024-05-09T03:10:03.481Z,100220.71
2024-05-09T03:11:28.667Z,100301.49
2024-05-09T03:12:52.942Z,100311.26
2024-05-09T03:14:17.857Z,100306.04
2024-05-09T03:15:42.189Z,100308.91
2024-05-09T03:17:06.650Z,100308.73
2024-05-09T03:18:31.083Z,100311.52
2024-05-09T03:19:57.154Z,100306.30
2024-05-09T03:21:21.894Z,100308.35
2024-05-09T03:22:46.402Z,100305.30
2024-05-09T03:24:10.805Z,100298.03
2024-05-09T03:25:38.205Z,100296.57
2024-05-09T03:27:03.303Z,100302.83
2024-05-09T03:28:27.884Z,100303.83
2024-05-09T03:29:52.662Z,100297.60
2024-05-09T03:31:18.467Z,100304.58
2024-05-09T03:32:45.941Z,100304.66
2024-05-09T03:34:11.205Z,100308.02
2024-05-09T03:35:36.531Z,100293.80
2024-05-09T03:37:00.965Z,100312.38
2024-05-09T03:38:25.985Z,100310.67
2024-05-09T03:39:50.310Z,100309.04
2024-05-09T03:41:15.466Z,100305.10
2024-05-09T03:42:41.838Z,100316.98
2024-05-09T03:44:06.134Z,100315.82
2024-05-09T03:45:30.941Z,100312.88
2024-05-09T03:46:56.260Z,100310.15
2024-05-09T03:48:20.649Z,100316.18
2024-05-09T03:49:44.753Z,100321.64
2024-05-09T03:51:08.828Z,100319.56
2024-05-09T03:52:33.017Z,100319.83
2024-05-09T03:53:58.289Z,100320.42
2024-05-09T03:55:24.842Z,100326.75
2024-05-09T03:56:49.167Z,100328.78
2024-05-09T03:58:13.890Z,100332.19
2024-05-09T03:59:38.178Z,100332.41
2024-05-09T04:01:02.470Z,100333.89
2024-05-09T04:02:27.976Z,100321.89
2024-05-09T04:03:52.701Z,100334.48
2024-05-09T04:05:16.889Z,100334.66
2024-05-09T04:06:42.738Z,100341.80
2024-05-09T04:08:07.480Z,100350.23
2024-05-09T04:09:31.382Z,100343.42
2024-05-09T04:10:56.053Z,100340.42
2024-05-09T04:12:19.915Z,100349.99
2024-05-09T04:13:44.390Z,100335.48
2024-05-09T04:15:12.166Z,100341.48
2024-05-09T04:16:36.844Z,100334.17
2024-05-09T04:18:02.336Z,100334.91
2024-05-09T04:19:27.361Z,100334.61
2024-05-09T04:20:51.821Z,100335.92
2024-05-09T04:22:17.133Z,100332.61
2024-05-09T04:23:42.676Z,100347.69
2024-05-09T04:25:07.251Z,100342.33
2024-05-09T04:26:32.361Z,100333.14
2024-05-09T04:27:56.753Z,100332.42
2024-05-09T04:29:21.970Z,100338.87
2024-05-09T04:30:46.411Z,100330.69
2024-05-09T04:32:11.322Z,100328.47
2024-05-09T04:33:36.202Z,100331.23
2024-05-09T04:35:00.971Z,100334.77
2024-05-09T04:36:25.550Z,100339.24
2024-05-09T04:37:49.499Z,100321.92
2024-05-09T04:39:15.511Z,100316.48
2024-05-09T04:40:40.363Z,100322.93
2024-05-09T04:42:05.504Z,100334.36
2024-05-09T04:43:30.161Z,100332.30
2024-05-09T04:44:58.286Z,100322.14
2024-05-09T04:46:23.658Z,100340.23
2024-05-09T04:47:50.156Z,100345.67
2024-05-09T04:49:15.398Z,100340.14
2024-05-09T04:50:40.311Z,100346.41
2024-05-09T04:52:07.648Z,100343.14
2024-05-09T04:53:33.937Z,100335.83
2024-05-09T04:54:59.016Z,100356.81
2024-05-09T04:56:23.999Z,100345.02
2024-05-09T04:57:48.945Z,100341.83
2024-05-09T04:59:13.810Z,100342.93
2024-05-09T05:00:40.479Z,100329.98
2024-05-09T05:02:05.409Z,100334.83
2024-05-09T05:03:29.705Z,100348.14
2024-05-09T05:04:55.024Z,100342.72
2024-05-09T05:06:19.802Z,100340.16
2024-05-09T05:07:44.710Z,100361.66
2024-05-09T05:09:09.433Z,100358.42
2024-05-09T05:10:36.575Z,100360.59
2024-05-09T05:12:02.402Z,100359.23
2024-05-09T05:13:31.617Z,100357.77
2024-05-09T05:14:55.826Z,100363.67
2024-05-09T05:16:20.266Z,100358.58
2024-05-09T05:17:44.411Z,100355.44
2024-05-09T05:19:12.003Z,100343.22
2024-05-09T05:20:35.780Z,100340.20
2024-05-09T05:21:59.914Z,100354.98
2024-05-09T05:23:24.654Z,100341.42
2024-05-09T05:24:50.605Z,100348.81
2024-05-09T05:26:16.691Z,100344.94
2024-05-09T05:27:40.776Z,100335.33
2024-05-09T05:29:04.953Z,100346.53
2024-05-09T05:30:34.431Z,100345.28
2024-05-09T05:31:54.767Z,100354.85
2024-05-09T05:33:21.501Z,100354.52
2024-05-09T05:34:46.753Z,100355.70
2024-05-09T05:36:11.019Z,100357.89
2024-05-09T05:37:35.018Z,100357.05
2024-05-09T05:38:59.620Z,100350.53
2024-05-09T05:40:32.256Z,100366.45
2024-05-09T05:41:49.835Z,100368.32
2024-05-09T05:43:18.060Z,100355.34
2024-05-09T05:44:42.118Z,100365.55
2024-05-09T05:46:05.987Z,100366.05
2024-05-09T05:47:30.251Z,100361.29
2024-05-09T05:48:54.067Z,100372.68
2024-05-09T05:50:27.357Z,100379.87
2024-05-09T05:51:45.323Z,100368.81
2024-05-09T05:53:10.750Z,100363.59
2024-05-09T05:54:35.498Z,100365.13
2024-05-09T05:55:59.843Z,100356.72
2024-05-09T05:57:24.662Z,100364.39
2024-05-09T05:58:48.979Z,100361.91
2024-05-09T06:00:21.640Z,100345.08
2024-05-09T06:01:40.323Z,100360.96
2024-05-09T06:03:06.273Z,100365.52
2024-05-09T06:04:30.456Z,100355.10
2024-05-09T06:05:54.459Z,100361.01
2024-05-09T06:07:18.827Z,100359.23
2024-05-09T06:08:42.878Z,100363.21
2024-05-09T06:10:16.925Z,100371.84
2024-05-09T06:11:33.809Z,100358.34
2024-05-09T06:12:58.040Z,100348.93
2024-05-09T06:14:22.495Z,100362.31
2024-05-09T06:15:46.369Z,100355.79
2024-05-09T06:17:10.153Z,100357.21
2024-05-09T06:18:34.665Z,100370.19
2024-05-09T06:19:59.700Z,100363.63
2024-05-09T06:21:23.995Z,100361.34
2024-05-09T06:22:49.144Z,100370.41
2024-05-09T06:24:13.180Z,100366.30
2024-05-09T06:25:38.084Z,100364.30
2024-05-09T06:27:03.245Z,100354.86
2024-05-09T06:28:27.881Z,100364.99
2024-05-09T06:29:52.084Z,100360.95
2024-05-09T06:31:15.981Z,100357.28
2024-05-09T06:32:44.757Z,100360.87
2024-05-09T06:34:10.545Z,100357.12
2024-05-09T06:35:34.896Z,100351.48
2024-05-09T06:36:59.097Z,100366.53
2024-05-09T06:38:22.742Z,100366.16
2024-05-09T06:39:48.928Z,100374.91
2024-05-09T06:41:13.527Z,100348.50
2024-05-09T06:42:37.175Z,100364.16
2024-05-09T06:44:02.015Z,100362.17
2024-05-09T06:45:29.542Z,100356.17
2024-05-09T06:46:55.822Z,100361.41
2024-05-09T06:48:22.508Z,100349.80
2024-05-09T06:49:47.204Z,100358.66
2024-05-09T06:51:12.521Z,100356.92
2024-05-09T06:52:39.558Z,100361.52
2024-05-09T06:54:05.413Z,100359.51
2024-05-09T06:55:30.739Z,100355.51
2024-05-09T06:56:54.679Z,100365.63
2024-05-09T06:58:19.331Z,100368.86
2024-05-09T06:59:43.402Z,100366.69
2024-05-09T07:01:07.629Z,100360.34
2024-05-09T07:02:31.536Z,100352.95
2024-05-09T07:03:56.115Z,100344.38
2024-05-09T07:05:21.265Z,100347.67
2024-05-09T07:06:45.748Z,100363.11
2024-05-09T07:08:09.974Z,100364.89
2024-05-09T07:09:34.145Z,100368.38
2024-05-09T07:10:58.971Z,100352.80
2024-05-09T07:12:24.350Z,100370.00
2024-05-09T07:13:49.676Z,100364.00
2024-05-09T07:15:15.918Z,100358.22
2024-05-09T07:16:39.952Z,100356.23
2024-05-09T07:18:18.240Z,100366.40
2024-05-09T07:19:42.353Z,100367.30
2024-05-09T07:21:11.580Z,100361.39
2024-05-09T07:22:37.006Z,100353.84
2024-05-09T07:24:02.510Z,100362.66
2024-05-09T07:25:31.002Z,100364.38
2024-05-09T07:26:56.826Z,100364.03
2024-05-09T07:28:21.718Z,100367.56
2024-05-09T07:29:45.815Z,100369.87
2024-05-09T07:31:10.874Z,100365.84
2024-05-09T07:32:36.739Z,100368.25
2024-05-09T07:34:01.080Z,100363.89
2024-05-09T07:35:24.956Z,100373.62
2024-05-09T07:36:50.140Z,100368.58
2024-05-09T07:38:14.384Z,100373.84
2024-05-09T07:39:41.106Z,100373.70
2024-05-09T07:41:06.135Z,100347.88
2024-05-09T07:42:31.906Z,100364.92
2024-05-09T07:43:58.785Z,100353.55
2024-05-09T07:45:41.669Z,100353.06
2024-05-09T07:47:52.272Z,100343.86
2024-05-09T07:51:32.639Z,100355.42
2024-05-09T07:53:34.509Z,100349.37
2024-05-09T07:54:16.065Z,100345.69
2024-05-09T07:55:41.871Z,100329.14
2024-05-09T07:57:06.994Z,100353.20
2024-05-09T07:58:36.058Z,100358.80
2024-05-09T08:00:06.778Z,100349.66
2024-05-09T08:01:33.704Z,100345.86
2024-05-09T08:03:00.100Z,100362.81
2024-05-09T08:04:26.892Z,100360.03
2024-05-09T08:05:51.988Z,100356.83
2024-05-09T08:07:17.183Z,100350.11
2024-05-09T08:08:46.726Z,100344.71
2024-05-09T08:10:15.245Z,100342.77
2024-05-09T08:11:38.190Z,100352.64
2024-05-09T08:13:03.595Z,100356.31
2024-05-09T08:14:28.789Z,100358.21
2024-05-09T08:15:53.803Z,100346.91
2024-05-09T08:17:21.228Z,100352.90
2024-05-09T08:18:46.149Z,100358.46
2024-05-09T08:20:15.870Z,100350.18
2024-05-09T08:21:38.507Z,100356.78
2024-05-09T08:23:02.975Z,100358.19
2024-05-09T08:24:27.381Z,100354.16
2024-05-09T08:25:54.985Z,100344.38
2024-05-09T08:27:20.077Z,100354.59
2024-05-09T08:28:44.260Z,100361.90
2024-05-09T08:30:18.591Z,100346.55
2024-05-09T08:31:38.682Z,100343.03
2024-05-09T08:33:06.538Z,100351.59
2024-05-09T08:34:33.089Z,100352.11
2024-05-09T08:35:59.961Z,100351.31
2024-05-09T08:37:27.856Z,100340.52
2024-05-09T08:38:50.872Z,100340.00
2024-05-09T08:40:23.689Z,100200.73
2024-05-09T08:41:42.684Z,100341.34
2024-05-09T08:43:08.365Z,100326.84
2024-05-09T08:44:34.488Z,100334.89
2024-05-09T08:45:59.871Z,100329.86
2024-05-09T08:47:24.714Z,100331.98
2024-05-09T08:48:55.018Z,100326.30
2024-05-09T08:50:31.616Z,100329.83
2024-05-09T08:51:47.911Z,100328.24
2024-05-09T08:53:14.974Z,100328.56
2024-05-09T08:54:40.425Z,100322.17
2024-05-09T08:56:08.531Z,100317.16
2024-05-09T08:57:35.589Z,100327.59
2024-05-09T08:59:01.619Z,100325.08
2024-05-09T09:00:35.597Z,100318.67
2024-05-09T09:01:54.512Z,100320.16
2024-05-09T09:03:22.959Z,100319.45
2024-05-09T09:05:00.423Z,100315.41
2024-05-09T09:06:25.802Z,100328.33
2024-05-09T09:07:51.325Z,100324.06
2024-05-09T09:09:15.412Z,100319.94
2024-05-09T09:10:41.407Z,100320.58
2024-05-09T09:12:08.706Z,100317.27
2024-05-09T09:13:33.662Z,100316.62
2024-05-09T09:15:01.179Z,100317.86
2024-05-09T09:16:35.371Z,100329.04
2024-05-09T09:18:00.571Z,100319.53
2024-05-09T09:19:25.162Z,100321.68
2024-05-09T09:20:49.762Z,100309.02
2024-05-09T09:22:15.105Z,100319.53
2024-05-09T09:23:39.572Z,100315.70
2024-05-09T09:25:04.543Z,100324.16
2024-05-09T09:26:32.012Z,100310.25
2024-05-09T09:27:58.539Z,100310.86
2024-05-09T09:29:26.665Z,100300.84
2024-05-09T09:30:51.037Z,100310.25
2024-05-09T09:32:15.199Z,100299.52
2024-05-09T09:33:46.498Z,100311.77
2024-05-09T09:35:11.004Z,100313.06
2024-05-09T09:36:37.765Z,100307.27
2024-05-09T09:38:05.598Z,100311.03
2024-05-09T09:39:32.648Z,100309.23
2024-05-09T09:40:59.549Z,100309.19
2024-05-09T09:42:29.491Z,100309.33
2024-05-09T09:43:56.318Z,100303.05
2024-05-09T09:45:20.786Z,100298.29
2024-05-09T09:46:46.139Z,100301.37
2024-05-09T09:48:11.855Z,100294.22
2024-05-09T09:49:36.955Z,100304.14
2024-05-09T09:51:02.579Z,100290.63
2024-05-09T09:52:27.963Z,100286.12
2024-05-09T09:53:55.657Z,100285.82
2024-05-09T09:55:24.383Z,100279.52
2024-05-09T09:56:50.924Z,100297.27
2024-05-09T09:58:18.886Z,100292.02
2024-05-09T09:59:45.948Z,100292.86
2024-05-09T10:01:10.643Z,100281.83
2024-05-09T10:02:38.557Z,100278.23
2024-05-09T10:04:05.157Z,100277.87
2024-05-09T10:05:29.788Z,100276.22
2024-05-09T10:06:58.313Z,100282.02
2024-05-09T10:08:24.374Z,100285.58
2024-05-09T10:09:49.242Z,100291.05
2024-05-09T10:11:19.707Z,100288.89
2024-05-09T10:13:04.681Z,100285.34
2024-05-09T10:14:31.220Z,100295.32
2024-05-09T10:15:57.728Z,100299.14
2024-05-09T10:17:22.164Z,100281.17
2024-05-09T10:18:46.817Z,100297.25
2024-05-09T10:20:21.129Z,100295.78
2024-05-09T10:21:41.495Z,100294.81
2024-05-09T10:23:05.737Z,100292.14
2024-05-09T10:24:52.521Z,100278.42
2024-05-09T10:26:17.568Z,100282.81
2024-05-09T10:27:41.688Z,100288.05
2024-05-09T10:29:16.876Z,100293.45
2024-05-09T10:30:43.190Z,100279.17
2024-05-09T10:32:08.989Z,100286.84
2024-05-09T10:33:51.702Z,100287.45
2024-05-09T10:35:19.100Z,100272.73
2024-05-09T10:36:44.000Z,100273.60
2024-05-09T10:38:09.902Z,100278.25
2024-05-09T10:39:36.769Z,100283.48
2024-05-09T10:41:03.168Z,100273.86
2024-05-09T10:42:30.972Z,100285.70
2024-05-09T10:43:55.229Z,100282.97
2024-05-09T10:45:19.380Z,100270.95
2024-05-09T10:46:47.049Z,100273.12
2024-05-09T10:48:12.301Z,100276.70
2024-05-09T10:49:38.663Z,100262.80
2024-05-09T10:51:03.940Z,100269.42
2024-05-09T10:52:28.326Z,100270.80
2024-05-09T10:53:55.437Z,100273.23
2024-05-09T10:55:21.254Z,100256.88
2024-05-09T10:56:45.916Z,100260.14
2024-05-09T10:58:17.820Z,100266.70
2024-05-09T10:59:42.650Z,100255.34
2024-05-09T11:01:08.554Z,100262.06
2024-05-09T11:02:33.770Z,100261.23
2024-05-09T11:03:58.058Z,100266.80
2024-05-09T11:05:23.696Z,100262.47
2024-05-09T11:06:48.705Z,100267.14
2024-05-09T11:08:15.358Z,100262.21
2024-05-09T11:09:41.180Z,100255.90
2024-05-09T11:11:06.338Z,100258.27
2024-05-09T11:12:30.298Z,100256.72
2024-05-09T11:13:55.079Z,100231.38
2024-05-09T11:15:19.357Z,100244.45
2024-05-09T11:16:44.556Z,100248.38
2024-05-09T11:18:16.623Z,100243.48
2024-05-09T11:19:43.688Z,100247.63
2024-05-09T11:21:13.648Z,100243.00
2024-05-09T11:22:38.883Z,100241.01
2024-05-09T11:24:07.300Z,100247.69
2024-05-09T11:25:32.962Z,100248.84
2024-05-09T11:26:59.420Z,100249.73
2024-05-09T11:28:25.635Z,100255.09
2024-05-09T11:29:50.702Z,100243.53
2024-05-09T11:31:17.399Z,100237.45
2024-05-09T11:32:44.086Z,100236.53
2024-05-09T11:34:09.665Z,100229.45
2024-05-09T11:35:34.428Z,100239.70
2024-05-09T11:36:59.955Z,100236.78
2024-05-09T11:38:25.030Z,100221.73
2024-05-09T11:39:50.175Z,100222.30
2024-05-09T11:41:18.910Z,100226.03
2024-05-09T11:42:45.030Z,100228.13
2024-05-09T11:44:08.891Z,100222.81
2024-05-09T11:45:33.165Z,100226.58
2024-05-09T11:46:57.356Z,100225.19
2024-05-09T11:48:23.105Z,100228.02
2024-05-09T11:49:47.947Z,100226.99
2024-05-09T11:51:13.238Z,100229.94
2024-05-09T11:52:37.759Z,100235.56
2024-05-09T11:54:03.021Z,100211.71
2024-05-09T11:55:31.126Z,100228.61
2024-05-09T11:56:55.557Z,100226.37
2024-05-09T11:58:22.202Z,100225.78
2024-05-09T11:59:46.548Z,100227.66
2024-05-09T12:01:10.661Z,100225.43
2024-05-09T12:02:34.759Z,100216.97
2024-05-09T12:03:59.154Z,100215.89
2024-05-09T12:05:24.297Z,100224.20
2024-05-09T12:06:48.369Z,100227.89
2024-05-09T12:08:13.701Z,100133.77
2024-05-09T12:09:37.284Z,100214.50
2024-05-09T12:11:01.822Z,100215.20
2024-05-09T12:12:27.960Z,100217.48
2024-05-09T12:13:52.333Z,100208.09
2024-05-09T12:15:18.102Z,100206.12
2024-05-09T12:16:43.170Z,100200.50
2024-05-09T12:18:08.690Z,100209.30
2024-05-09T12:19:33.761Z,100207.54
2024-05-09T12:20:58.052Z,100194.33
2024-05-09T12:22:22.245Z,100189.02
2024-05-09T12:23:46.360Z,100187.81
2024-05-09T12:25:11.092Z,100186.27
2024-05-09T12:26:36.208Z,100195.83
2024-05-09T12:28:01.012Z,100187.42
2024-05-09T12:29:26.361Z,100196.20
2024-05-09T12:30:51.491Z,100189.17
2024-05-09T12:32:15.350Z,100181.95
2024-05-09T12:33:39.247Z,100186.09
2024-05-09T12:35:03.639Z,100190.09
2024-05-09T12:36:30.283Z,100191.25
2024-05-09T12:37:54.206Z,100189.70
2024-05-09T12:39:18.381Z,100187.04
2024-05-09T12:40:45.031Z,100189.30
2024-05-09T12:42:10.908Z,100184.95
2024-05-09T12:43:35.493Z,100178.92
2024-05-09T12:44:59.870Z,100182.05
2024-05-09T12:46:24.171Z,100173.59
2024-05-09T12:47:48.172Z,100176.34
2024-05-09T12:49:14.967Z,100181.30
2024-05-09T12:50:41.790Z,100179.84
2024-05-09T12:52:07.092Z,100166.09
2024-05-09T12:53:31.934Z,100170.81
2024-05-09T12:54:56.061Z,100165.84
2024-05-09T12:56:20.463Z,100169.70
2024-05-09T12:57:45.078Z,100171.70
2024-05-09T12:59:09.934Z,100165.84
2024-05-09T13:00:34.742Z,100159.93
2024-05-09T13:02:01.112Z,100157.97
2024-05-09T13:03:26.551Z,100163.16
2024-05-09T13:04:51.832Z,100154.44
2024-05-09T13:06:17.777Z,100170.38
2024-05-09T13:07:42.739Z,100160.97
2024-05-09T13:09:07.075Z,100163.41
2024-05-09T13:10:33.061Z,100158.52
2024-05-09T13:11:58.013Z,100164.75
2024-05-09T13:13:23.436Z,100151.04
2024-05-09T13:14:48.867Z,100159.33
2024-05-09T13:16:13.179Z,100145.09
2024-05-09T13:17:38.368Z,100158.17
2024-05-09T13:19:05.071Z,100149.86
2024-05-09T13:20:34.222Z,100147.22
2024-05-09T13:21:57.785Z,100155.06
2024-05-09T13:23:22.781Z,100151.58
2024-05-09T13:24:47.992Z,100156.17
2024-05-09T13:26:13.542Z,100151.30
2024-05-09T13:27:38.740Z,100154.01
2024-05-09T13:29:04.744Z,100148.63
2024-05-09T13:30:38.484Z,100147.94
2024-05-09T13:31:56.020Z,100139.07
2024-05-09T13:33:20.651Z,100147.91
2024-05-09T13:34:45.965Z,100149.77
2024-05-09T13:36:11.368Z,100144.28
2024-05-09T13:37:36.769Z,100145.31
2024-05-09T13:39:03.326Z,100141.87
2024-05-09T13:40:34.581Z,100123.02
2024-05-09T13:41:57.985Z,100139.27
2024-05-09T13:43:24.938Z,100139.52
2024-05-09T13:44:49.456Z,100137.39
2024-05-09T13:46:14.582Z,100142.66
2024-05-09T13:47:39.854Z,100140.80
2024-05-09T13:49:05.240Z,100146.13
2024-05-09T13:50:34.668Z,100134.19
2024-05-09T13:51:57.890Z,100124.00
2024-05-09T13:53:24.734Z,100117.41
2024-05-09T13:54:48.845Z,100131.25
2024-05-09T13:56:14.532Z,100136.14
2024-05-09T13:57:39.147Z,100137.77
2024-05-09T13:59:04.571Z,100139.81
2024-05-09T14:00:41.836Z,100147.12
2024-05-09T14:01:55.651Z,100134.61
2024-05-09T14:03:21.873Z,100142.23
2024-05-09T14:04:46.947Z,100140.56
2024-05-09T14:06:13.105Z,100143.88
2024-05-09T14:07:39.002Z,100140.98
2024-05-09T14:09:06.122Z,100132.30
2024-05-09T14:10:32.143Z,100133.80
2024-05-09T14:11:57.447Z,100127.51
2024-05-09T14:13:21.924Z,100132.27
2024-05-09T14:14:46.875Z,100120.95
2024-05-09T14:16:11.248Z,100117.74
2024-05-09T14:17:35.482Z,100112.00
2024-05-09T14:19:00.513Z,100114.00
2024-05-09T14:20:30.911Z,100034.70
2024-05-09T14:21:50.312Z,100118.98
2024-05-09T14:23:17.239Z,100119.03
2024-05-09T14:24:41.403Z,100121.27
2024-05-09T14:26:06.065Z,100124.36
2024-05-09T14:27:31.776Z,100123.53
2024-05-09T14:28:56.547Z,100124.27
2024-05-09T14:30:26.373Z,100128.36
2024-05-09T14:31:47.546Z,100121.57
2024-05-09T14:33:12.158Z,100115.35
2024-05-09T14:34:37.918Z,100113.44
2024-05-09T14:36:04.700Z,100113.73
2024-05-09T14:37:28.830Z,100120.75
2024-05-09T14:38:54.292Z,100118.87
2024-05-09T14:40:29.777Z,100112.09
2024-05-09T14:41:46.081Z,100116.86
2024-05-09T14:43:11.747Z,100114.51
2024-05-09T14:44:36.250Z,100109.95
2024-05-09T14:46:00.129Z,100115.53
2024-05-09T14:47:25.009Z,100116.84
2024-05-09T14:48:49.584Z,100121.14
2024-05-09T14:50:23.658Z,100110.22
2024-05-09T14:51:41.270Z,100104.75
2024-05-09T14:53:07.611Z,100112.94
2024-05-09T14:54:40.379Z,100110.09
2024-05-09T14:56:05.476Z,100117.09
2024-05-09T14:57:29.278Z,100121.48
2024-05-09T14:58:54.739Z,100114.03
2024-05-09T15:00:26.304Z,100105.23
2024-05-09T15:01:46.820Z,100106.66
2024-05-09T15:03:10.755Z,100113.31
2024-05-09T15:04:34.640Z,100109.64
2024-05-09T15:05:59.072Z,100109.17
2024-05-09T15:07:23.322Z,100101.92
2024-05-09T15:08:56.488Z,100091.31
2024-05-09T15:10:27.159Z,100099.48
2024-05-09T15:11:46.971Z,100103.73
2024-05-09T15:13:13.230Z,100101.26
2024-05-09T15:14:38.255Z,100093.52
2024-05-09T15:16:02.123Z,100101.47
2024-05-09T15:17:26.937Z,100106.67
2024-05-09T15:18:51.909Z,100096.80
2024-05-09T15:20:24.179Z,100010.45
2024-05-09T15:21:42.950Z,100091.78
2024-05-09T15:23:07.682Z,100091.77
2024-05-09T15:24:34.314Z,100089.19
2024-05-09T15:25:58.366Z,100110.77
2024-05-09T15:27:21.994Z,100097.60
2024-05-09T15:28:46.078Z,100096.03
2024-05-09T15:30:10.907Z,100086.88
2024-05-09T15:31:35.115Z,100103.73
2024-05-09T15:33:01.163Z,100098.64
2024-05-09T15:34:27.671Z,100089.28
2024-05-09T15:35:57.229Z,100092.00
2024-05-09T15:37:22.062Z,100089.97
2024-05-09T15:38:47.492Z,100091.41
2024-05-09T15:40:18.834Z,100097.36
2024-05-09T15:41:39.648Z,100099.35
2024-05-09T15:43:03.917Z,100098.06
2024-05-09T15:44:28.051Z,100105.98
2024-05-09T15:45:52.752Z,100099.05
2024-05-09T15:47:16.830Z,100087.84
2024-05-09T15:48:44.544Z,100091.18
2024-05-09T15:50:17.079Z,100087.33
2024-05-09T15:51:34.562Z,100103.35
2024-05-09T15:52:58.282Z,100087.23
2024-05-09T15:54:25.011Z,100091.69
2024-05-09T15:55:48.971Z,100091.50
2024-05-09T15:57:13.653Z,100096.57
2024-05-09T15:58:38.718Z,100077.20
2024-05-09T16:00:07.749Z,100093.23
2024-05-09T16:01:33.467Z,100086.92
2024-05-09T16:02:58.410Z,100087.30
2024-05-09T16:04:23.823Z,100085.92
2024-05-09T16:05:51.663Z,100090.54
2024-05-09T16:07:19.706Z,100089.55
2024-05-09T16:08:47.458Z,100080.13
2024-05-09T16:10:20.239Z,100097.45
2024-05-09T16:11:42.681Z,100098.32
2024-05-09T16:13:08.644Z,100086.87
2024-05-09T16:14:33.124Z,100078.22
2024-05-09T16:15:58.643Z,100072.17
2024-05-09T16:17:22.892Z,100083.24
2024-05-09T16:18:47.118Z,100092.40
2024-05-09T16:20:15.335Z,100089.09